Dades de l'estació automàtica Algerri
Resum diari
21:30 TU| Temperatura mitjana | 15.4 °C | |
|---|---|---|
| Temperatura màxima | 21.2 °C | 14:47 TU |
| Temperatura mínima | 10.9 °C | 21:03 TU |
| Humitat relativa mitjana | 82% | |
| Precipitació acumulada | 7.3 mm | |
| Ratxa màxima del vent (2 m) | 52.6 km/h - 341º | 17:21 TU |
| Irradiació solar global | 16.4 MJ/m2 | |
El tram horari està expressat en Temps Universal (TU). Cal sumar una hora en horari d'hivern i dues en horari d'estiu per passar a l'hora oficial.
Algerri
| Municipi | Algerri |
|---|---|
| Comarca | Noguera |
| Altitud | 301 m |
| Data alta | 13.12.2000 |
| Estat actual | Operativa |
| Període TU |
TM °C |
TX °C |
TN °C |
HRM % |
PPT mm |
VVM (2 m) km/h |
DVM (2 m) graus |
VVX (2 m) km/h |
RS W/m2 |
|---|---|---|---|---|---|---|---|---|---|
| 00:00 - 00:30 | 13.4 | 13.7 | 13.3 | 87 | 0.0 | 5.8 | 54 | 9.0 | 0 |
| 00:30 - 01:00 | 13.1 | 13.4 | 12.9 | 93 | 0.0 | 2.5 | 85 | 5.0 | 0 |
| 01:00 - 01:30 | 12.6 | 13.0 | 12.5 | 99 | 0.0 | 2.9 | 135 | 5.8 | 0 |
| 01:30 - 02:00 | 12.4 | 12.5 | 12.4 | 100 | 0.0 | 2.2 | 115 | 7.2 | 0 |
| 02:00 - 02:30 | 13.0 | 13.2 | 12.4 | 96 | 0.0 | 3.6 | 127 | 9.4 | 0 |
| 02:30 - 03:00 | 13.0 | 13.1 | 12.8 | 99 | 0.9 | 3.2 | 280 | 7.2 | 0 |
| 03:00 - 03:30 | 12.9 | 13.0 | 12.8 | 100 | 1.1 | 11.2 | 54 | 16.9 | 0 |
| 03:30 - 04:00 | 13.0 | 13.0 | 13.0 | 100 | 0.0 | 10.4 | 74 | 19.8 | 0 |
| 04:00 - 04:30 | 13.0 | 13.1 | 13.0 | 100 | 0.0 | 7.9 | 85 | 16.6 | 0 |
| 04:30 - 05:00 | 12.5 | 12.9 | 12.3 | 100 | 0.0 | 4.0 | 142 | 7.9 | 1 |
| 05:00 - 05:30 | 12.1 | 12.2 | 12.1 | 100 | 0.0 | 3.6 | 142 | 8.3 | 15 |
| 05:30 - 06:00 | 12.4 | 13.0 | 12.2 | 100 | 0.0 | 2.9 | 79 | 5.0 | 123 |
| 06:00 - 06:30 | 13.8 | 14.2 | 13.2 | 97 | 0.0 | 4.7 | 79 | 12.2 | 188 |
| 06:30 - 07:00 | 14.4 | 14.7 | 14.2 | 91 | 0.0 | 6.1 | 67 | 11.2 | 179 |
| 07:00 - 07:30 | 14.9 | 15.4 | 14.7 | 86 | 0.0 | 7.2 | 63 | 12.6 | 256 |
| 07:30 - 08:00 | 16.1 | 16.3 | 15.6 | 78 | 0.0 | 7.2 | 83 | 12.2 | 309 |
| 08:00 - 08:30 | 15.9 | 16.0 | 15.8 | 74 | 0.0 | 7.9 | 63 | 14.4 | 155 |
| 08:30 - 09:00 | 16.7 | 17.2 | 16.0 | 74 | 0.0 | 5.8 | 128 | 13.0 | 349 |
| 09:00 - 09:30 | 17.7 | 18.3 | 17.3 | 69 | 0.0 | 6.5 | 134 | 12.6 | 486 |
| 09:30 - 10:00 | 18.2 | 19.1 | 17.7 | 67 | 0.0 | 5.0 | 137 | 11.5 | 636 |
| 10:00 - 10:30 | 19.8 | 20.2 | 19.1 | 63 | 0.0 | 5.0 | 140 | 12.2 | 957 |
| 10:30 - 11:00 | 20.3 | 20.6 | 19.8 | 60 | 0.0 | 6.8 | 145 | 15.1 | 960 |
| 11:00 - 11:30 | 20.5 | 20.7 | 20.0 | 58 | 0.0 | 6.8 | 186 | 14.4 | 837 |
| 11:30 - 12:00 | 20.4 | 20.8 | 20.0 | 57 | 0.0 | 5.4 | 208 | 11.2 | 500 |
| 12:00 - 12:30 | 19.5 | 20.0 | 18.9 | 60 | 0.0 | 5.8 | 222 | 10.8 | 135 |
| 12:30 - 13:00 | 18.2 | 18.9 | 17.9 | 73 | 0.6 | 6.5 | 213 | 13.3 | 211 |
| 13:00 - 13:30 | 18.1 | 18.3 | 18.0 | 73 | 0.1 | 6.8 | 225 | 12.2 | 365 |
| 13:30 - 14:00 | 18.7 | 19.2 | 18.3 | 70 | 0.0 | 5.4 | 206 | 10.1 | 433 |
| 14:00 - 14:30 | 19.4 | 20.0 | 19.1 | 67 | 0.0 | 5.4 | 202 | 13.7 | 528 |
| 14:30 - 15:00 | 20.0 | 21.2 | 19.4 | 64 | 0.0 | 4.7 | 204 | 13.0 | 499 |
| 15:00 - 15:30 | 19.8 | 20.1 | 19.4 | 60 | 0.0 | 4.7 | 233 | 14.0 | 299 |
| 15:30 - 16:00 | 19.8 | 20.2 | 19.5 | 56 | 0.0 | 5.0 | 248 | 11.5 | 314 |
| 16:00 - 16:30 | 19.7 | 19.9 | 19.6 | 58 | 0.0 | 5.0 | 225 | 12.2 | 247 |
| 16:30 - 17:00 | 19.5 | 19.8 | 19.2 | 62 | 0.0 | 6.5 | 197 | 10.8 | 131 |
| 17:00 - 17:30 | 17.1 | 19.1 | 14.7 | 62 | 0.1 | 20.5 | 312 | 52.6 | 10 |
| 17:30 - 18:00 | 13.4 | 14.5 | 12.8 | 74 | 2.3 | 19.4 | 340 | 37.4 | 1 |
| 18:00 - 18:30 | 13.1 | 13.3 | 12.8 | 75 | 0.6 | 16.2 | 335 | 31.7 | 1 |
| 18:30 - 19:00 | 12.5 | 12.8 | 12.2 | 88 | 1.4 | 3.6 | 265 | 12.2 | 6 |
| 19:00 - 19:30 | 12.1 | 12.4 | 11.5 | 96 | 0.2 | 6.1 | 143 | 13.0 | 0 |
| 19:30 - 20:00 | 11.3 | 11.5 | 11.2 | 100 | 0.0 | 2.2 | 183 | 5.8 | 0 |
| 20:00 - 20:30 | 11.2 | 11.4 | 11.0 | 100 | 0.0 | 2.2 | 180 | 6.8 | 0 |
| 20:30 - 21:00 | 11.3 | 11.4 | 11.1 | 100 | 0.0 | 3.6 | 230 | 11.9 | 0 |
| 21:00 - 21:30 | 11.1 | 11.3 | 10.9 | 100 | 0.0 | 4.7 | 259 | 13.0 | 0 |
| 21:30 - 22:00 | 11.2 | 11.4 | 11.1 | 100 | 0.0 | 4.7 | 268 | 11.2 | 0 |
| 22:00 - 22:30 | (s/d) | (s/d) | (s/d) | (s/d) | (s/d) | (s/d) | (s/d) | (s/d) | (s/d) |
Les dades en taronja només han passat un control de qualitat automàtic. Resta pendent la seva validació definitiva.